Time;durP1;ratioP1;P1;durP2;ratioP2;P2;SDS_P1;SDS_P2;PMS_P1;PMS_P2;Temp;Humidity;BMP_temperature;BMP_pressure;BME280_temperature;BME280_humidity;BME280_pressure;Samples;Min_cycle;Max_cycle;Signal;HPM_P1;HPM_P2
2022/08/29 00:00:18;;;;;;;12.52;7.38;;;;;;;;;;4957772;28;20515;-73
2022/08/29 00:02:49;;;;;;;13.40;7.40;;;;;;;;;;4987835;28;20022;-72
2022/08/29 00:05:15;;;;;;;15.15;7.97;;;;;;;;;;4987471;28;20442;-72
2022/08/29 00:07:41;;;;;;;21.13;8.68;;;;;;;;;;4985864;28;20094;-74
2022/08/29 00:10:08;;;;;;;18.23;8.38;;;;;;;;;;4987937;28;20088;-72
2022/08/29 00:12:35;;;;;;;19.02;9.20;;;;;;;;;;4988014;28;20039;-72
2022/08/29 00:15:02;;;;;;;12.68;8.25;;;;;;;;;;4959995;28;20030;-72
2022/08/29 00:17:28;;;;;;;15.63;8.93;;;;;;;;;;4987380;28;20053;-70
2022/08/29 00:19:54;;;;;;;14.30;8.70;;;;;;;;;;4989319;28;20121;-71
2022/08/29 00:22:20;;;;;;;13.98;9.70;;;;;;;;;;4989211;28;20066;-72
2022/08/29 00:24:46;;;;;;;11.40;8.50;;;;;;;;;;4985531;28;20621;-73
2022/08/29 00:27:12;;;;;;;13.63;9.00;;;;;;;;;;4987595;28;20041;-71
2022/08/29 00:29:38;;;;;;;16.42;8.85;;;;;;;;;;4982930;28;20046;-73
2022/08/29 00:32:05;;;;;;;18.92;9.77;;;;;;;;;;4987886;28;20480;-72
2022/08/29 00:34:31;;;;;;;17.20;8.50;;;;;;;;;;4983688;28;20134;-71
2022/08/29 00:36:57;;;;;;;16.05;9.18;;;;;;;;;;4983774;28;20045;-72
2022/08/29 00:39:23;;;;;;;12.93;9.60;;;;;;;;;;4981090;28;20061;-73
2022/08/29 00:41:49;;;;;;;14.32;9.27;;;;;;;;;;4970695;28;20491;-73
2022/08/29 00:44:15;;;;;;;14.40;9.65;;;;;;;;;;4969296;28;20038;-73
2022/08/29 00:46:41;;;;;;;17.13;10.15;;;;;;;;;;4984769;28;20285;-73
2022/08/29 00:49:22;;;;;;;13.13;9.10;;;;;;;;;;4985263;28;20030;-72
2022/08/29 00:51:48;;;;;;;20.90;10.30;;;;;;;;;;4987435;28;20441;-73
2022/08/29 00:54:14;;;;;;;16.48;9.93;;;;;;;;;;4986064;28;20029;-73
2022/08/29 00:56:41;;;;;;;11.57;8.43;;;;;;;;;;4986260;28;20042;-73
2022/08/29 00:59:18;;;;;;;14.95;8.40;;;;;;;;;;4969905;28;20026;-73
2022/08/29 01:01:44;;;;;;;15.68;7.85;;;;;;;;;;4986939;28;20030;-72
2022/08/29 01:04:10;;;;;;;13.00;8.32;;;;;;;;;;4984085;28;20496;-73
2022/08/29 01:06:37;;;;;;;9.77;7.15;;;;;;;;;;4984104;28;20268;-73
2022/08/29 01:09:04;;;;;;;13.57;7.78;;;;;;;;;;4985140;28;20075;-74
2022/08/29 01:14:17;;;;;;;14.40;8.52;;;;;;;;;;4983171;28;20057;-73
2022/08/29 01:16:43;;;;;;;11.65;7.68;;;;;;;;;;4983436;28;20581;-73
2022/08/29 01:19:15;;;;;;;10.98;7.28;;;;;;;;;;4980054;28;20030;-74
2022/08/29 01:21:48;;;;;;;12.32;8.23;;;;;;;;;;4983941;28;20022;-73
2022/08/29 01:24:14;;;;;;;11.68;7.90;;;;;;;;;;4981955;28;20074;-73
2022/08/29 01:26:41;;;;;;;12.60;6.90;;;;;;;;;;4985343;28;20026;-74
2022/08/29 01:29:08;;;;;;;13.23;8.30;;;;;;;;;;4981182;28;20030;-72
2022/08/29 01:31:44;;;;;;;16.15;8.50;;;;;;;;;;4985026;28;20045;-72
2022/08/29 01:34:11;;;;;;;10.63;7.97;;;;;;;;;;4982735;28;20142;-72
2022/08/29 01:36:54;;;;;;;15.52;8.25;;;;;;;;;;4983120;28;20766;-72
2022/08/29 01:39:25;;;;;;;13.13;7.72;;;;;;;;;;4979089;28;20475;-72
2022/08/29 01:41:51;;;;;;;;;;;;;;;;;;4981499;28;20080;-72
2022/08/29 01:44:19;;;;;;;12.45;7.60;;;;;;;;;;4986688;28;20010;-72
2022/08/29 01:46:46;;;;;;;10.88;7.50;;;;;;;;;;4988419;28;20446;-72
2022/08/29 01:49:13;;;;;;;11.77;7.63;;;;;;;;;;4985502;28;20022;-72
2022/08/29 01:51:40;;;;;;;9.00;6.53;;;;;;;;;;4988432;28;20092;-72
2022/08/29 01:54:07;;;;;;;8.23;5.80;;;;;;;;;;4988838;28;20041;-72
2022/08/29 01:56:34;;;;;;;7.47;5.85;;;;;;;;;;4987590;28;20038;-71
2022/08/29 01:59:02;;;;;;;12.18;6.72;;;;;;;;;;4988030;28;20495;-71
2022/08/29 02:01:33;;;;;;;14.52;6.40;;;;;;;;;;4990662;28;20510;-72
2022/08/29 02:03:59;;;;;;;13.25;7.72;;;;;;;;;;4991880;28;20026;-71
2022/08/29 02:06:25;;;;;;;16.02;8.02;;;;;;;;;;4974936;28;20387;-71
2022/08/29 02:08:52;;;;;;;22.05;8.20;;;;;;;;;;4989541;28;20046;-71
2022/08/29 02:11:18;;;;;;;16.30;7.68;;;;;;;;;;4989471;28;20031;-71
2022/08/29 02:13:46;;;;;;;13.07;7.32;;;;;;;;;;4974455;28;20046;-71
2022/08/29 02:16:13;;;;;;;11.80;7.07;;;;;;;;;;4989868;28;20022;-72
2022/08/29 02:18:41;;;;;;;13.18;7.20;;;;;;;;;;4991175;28;20509;-72
2022/08/29 02:21:07;;;;;;;14.55;7.13;;;;;;;;;;4990493;28;20148;-72
2022/08/29 02:23:34;;;;;;;11.68;6.85;;;;;;;;;;4990013;28;20034;-71
2022/08/29 02:26:00;;;;;;;12.75;7.30;;;;;;;;;;4990761;28;20129;-71
2022/08/29 02:28:26;;;;;;;20.48;8.52;;;;;;;;;;4988028;28;20103;-70
2022/08/29 02:30:52;;;;;;;15.05;8.73;;;;;;;;;;4984965;28;20030;-71
2022/08/29 02:33:19;;;;;;;13.20;8.07;;;;;;;;;;4988782;28;20042;-72
2022/08/29 02:35:45;;;;;;;13.70;9.23;;;;;;;;;;4987174;28;20073;-72
2022/08/29 02:38:12;;;;;;;17.30;10.15;;;;;;;;;;4961903;28;20142;-73
2022/08/29 02:40:38;;;;;;;15.10;9.35;;;;;;;;;;4988336;28;20031;-70
2022/08/29 02:43:04;;;;;;;14.15;9.35;;;;;;;;;;4987771;28;20089;-72
2022/08/29 02:45:31;;;;;;;17.15;10.25;;;;;;;;;;4986503;28;20041;-73
2022/08/29 02:47:57;;;;;;;12.90;9.27;;;;;;;;;;4987576;28;20054;-72
2022/08/29 02:50:24;;;;;;;16.25;9.07;;;;;;;;;;4984691;28;20058;-72
2022/08/29 02:52:50;;;;;;;14.40;10.68;;;;;;;;;;4987526;28;20046;-73
2022/08/29 02:55:18;;;;;;;13.40;9.13;;;;;;;;;;4965843;28;20488;-72
2022/08/29 02:57:44;;;;;;;12.48;8.55;;;;;;;;;;4985764;28;20030;-72
2022/08/29 03:00:13;;;;;;;13.70;8.98;;;;;;;;;;4986445;28;20093;-73
2022/08/29 03:02:39;;;;;;;13.88;9.55;;;;;;;;;;4987390;28;20471;-72
2022/08/29 03:05:06;;;;;;;15.55;8.73;;;;;;;;;;4971891;28;20121;-73
2022/08/29 03:07:32;;;;;;;17.23;8.60;;;;;;;;;;4988286;28;20058;-73
2022/08/29 03:09:58;;;;;;;14.45;7.72;;;;;;;;;;4987451;28;20026;-74
2022/08/29 03:12:24;;;;;;;9.52;6.85;;;;;;;;;;4989077;28;20566;-74
2022/08/29 03:14:50;;;;;;;11.73;6.13;;;;;;;;;;4991759;28;20141;-72
2022/08/29 03:17:16;;;;;;;8.43;6.30;;;;;;;;;;4992422;28;20030;-73
2022/08/29 03:19:42;;;;;;;10.30;6.20;;;;;;;;;;4992059;28;20035;-73
2022/08/29 03:22:08;;;;;;;11.07;6.28;;;;;;;;;;4993892;28;20046;-71
2022/08/29 03:24:35;;;;;;;10.02;6.22;;;;;;;;;;4992855;28;20060;-73
2022/08/29 03:27:01;;;;;;;7.82;6.30;;;;;;;;;;4990094;28;20421;-73
2022/08/29 03:29:27;;;;;;;11.00;6.90;;;;;;;;;;4969765;28;20030;-73
2022/08/29 03:31:57;;;;;;;13.13;6.97;;;;;;;;;;4973606;28;20015;-73
2022/08/29 03:34:23;;;;;;;13.13;7.40;;;;;;;;;;4974515;28;20049;-73
2022/08/29 03:36:49;;;;;;;11.60;7.60;;;;;;;;;;4987381;28;20041;-73
2022/08/29 03:39:15;;;;;;;15.43;7.10;;;;;;;;;;4990897;28;20039;-73
2022/08/29 03:41:41;;;;;;;9.90;7.50;;;;;;;;;;4988545;28;20031;-71
2022/08/29 03:44:08;;;;;;;12.32;7.15;;;;;;;;;;4988186;28;20088;-72
2022/08/29 03:46:38;;;;;;;10.27;6.90;;;;;;;;;;4971264;28;20081;-73
2022/08/29 03:49:06;;;;;;;10.20;7.50;;;;;;;;;;4987512;28;20112;-73
2022/08/29 03:51:32;;;;;;;16.35;7.68;;;;;;;;;;4982463;28;20034;-72
2022/08/29 03:53:58;;;;;;;20.77;7.82;;;;;;;;;;4984886;28;20043;-72
2022/08/29 03:56:24;;;;;;;16.83;8.27;;;;;;;;;;4983723;28;20105;-72
2022/08/29 03:58:50;;;;;;;16.83;7.93;;;;;;;;;;4984980;28;20054;-73
2022/08/29 04:01:17;;;;;;;17.20;7.97;;;;;;;;;;4987285;28;20042;-72
2022/08/29 04:03:43;;;;;;;11.38;6.90;;;;;;;;;;4987355;28;20027;-73
2022/08/29 04:06:09;;;;;;;14.32;6.63;;;;;;;;;;4983740;28;20042;-73
2022/08/29 04:08:36;;;;;;;11.00;6.72;;;;;;;;;;4987872;28;20216;-74
2022/08/29 04:11:08;;;;;;;10.13;6.47;;;;;;;;;;4967934;28;20042;-74
2022/08/29 04:13:34;;;;;;;26.27;9.88;;;;;;;;;;4987628;28;20037;-74
2022/08/29 04:16:01;;;;;;;13.07;6.75;;;;;;;;;;4981955;28;20050;-75
2022/08/29 04:18:27;;;;;;;11.15;6.75;;;;;;;;;;4988091;28;20123;-74
2022/08/29 04:21:00;;;;;;;10.82;6.20;;;;;;;;;;4983888;28;20069;-72
2022/08/29 04:23:26;;;;;;;10.30;6.13;;;;;;;;;;4986822;28;20490;-72
2022/08/29 04:25:52;;;;;;;11.25;7.07;;;;;;;;;;4986574;28;20035;-73
2022/08/29 04:28:18;;;;;;;12.63;6.80;;;;;;;;;;4987527;28;20121;-72
2022/08/29 04:30:48;;;;;;;7.78;5.97;;;;;;;;;;4982753;28;20057;-73
2022/08/29 04:33:14;;;;;;;10.20;6.72;;;;;;;;;;4964724;28;20491;-72
2022/08/29 04:35:40;;;;;;;10.43;6.85;;;;;;;;;;4990742;28;20519;-72
2022/08/29 04:38:07;;;;;;;12.02;7.00;;;;;;;;;;4989750;28;20105;-73
2022/08/29 04:40:33;;;;;;;9.48;6.72;;;;;;;;;;4989296;28;20038;-72
2022/08/29 04:43:00;;;;;;;10.65;6.97;;;;;;;;;;4989268;28;20448;-70
2022/08/29 04:45:26;;;;;;;9.55;6.85;;;;;;;;;;4983955;28;20164;-71
2022/08/29 04:47:53;;;;;;;12.18;6.90;;;;;;;;;;4986805;28;20050;-73
2022/08/29 04:50:20;;;;;;;12.77;7.80;;;;;;;;;;4985258;28;20045;-72
2022/08/29 04:52:47;;;;;;;14.45;7.55;;;;;;;;;;4965475;28;20121;-73
2022/08/29 04:55:14;;;;;;;11.10;7.10;;;;;;;;;;4983678;28;20034;-73
2022/08/29 04:57:40;;;;;;;11.05;6.90;;;;;;;;;;4985186;28;20030;-72
2022/08/29 05:00:12;;;;;;;10.52;7.22;;;;;;;;;;4985655;28;20036;-72
2022/08/29 05:02:38;;;;;;;9.52;7.10;;;;;;;;;;4985122;28;20026;-73
2022/08/29 05:05:05;;;;;;;11.45;6.93;;;;;;;;;;4984093;28;20096;-72
2022/08/29 05:07:31;;;;;;;12.32;7.35;;;;;;;;;;4983840;28;20034;-72
2022/08/29 05:10:02;;;;;;;9.20;6.68;;;;;;;;;;4984789;28;20116;-72
2022/08/29 05:12:29;;;;;;;10.25;7.40;;;;;;;;;;4981661;28;20037;-72
2022/08/29 05:14:56;;;;;;;10.82;7.15;;;;;;;;;;4981681;28;20034;-73
2022/08/29 05:17:22;;;;;;;12.20;6.90;;;;;;;;;;4981473;28;20033;-73
2022/08/29 05:19:49;;;;;;;16.92;6.93;;;;;;;;;;4986797;28;20034;-73
2022/08/29 05:22:16;;;;;;;23.35;7.55;;;;;;;;;;4983694;28;20049;-74
2022/08/29 05:24:42;;;;;;;12.88;6.88;;;;;;;;;;4983325;28;20046;-72
2022/08/29 05:27:09;;;;;;;13.15;6.80;;;;;;;;;;4984726;28;20488;-72
2022/08/29 05:29:39;;;;;;;14.68;7.20;;;;;;;;;;4976984;28;20026;-73
2022/08/29 05:32:06;;;;;;;12.40;6.15;;;;;;;;;;4978479;28;20485;-73
2022/08/29 05:34:33;;;;;;;11.55;6.82;;;;;;;;;;4980193;28;20019;-73
2022/08/29 05:36:59;;;;;;;8.30;6.35;;;;;;;;;;4983088;28;20129;-72
2022/08/29 05:39:25;;;;;;;15.57;7.53;;;;;;;;;;4982532;28;20038;-72
2022/08/29 05:41:54;;;;;;;14.32;6.88;;;;;;;;;;4978585;28;20506;-72
2022/08/29 05:44:20;;;;;;;21.15;7.38;;;;;;;;;;4981447;28;20018;-72
2022/08/29 05:46:47;;;;;;;12.18;6.60;;;;;;;;;;4967804;28;20053;-72
2022/08/29 05:49:13;;;;;;;7.80;6.65;;;;;;;;;;4985255;28;20057;-73
2022/08/29 05:51:41;;;;;;;12.93;6.65;;;;;;;;;;4985682;28;20062;-72
2022/08/29 05:54:08;;;;;;;17.25;7.35;;;;;;;;;;4983819;28;20035;-72
2022/08/29 05:56:34;;;;;;;12.68;6.95;;;;;;;;;;4985091;28;20050;-73
2022/08/29 05:59:00;;;;;;;16.05;6.88;;;;;;;;;;4986396;28;20036;-73
2022/08/29 06:01:28;;;;;;;14.00;6.60;;;;;;;;;;4980128;28;20034;-72
2022/08/29 06:03:54;;;;;;;13.30;6.72;;;;;;;;;;4984271;28;20030;-72
2022/08/29 06:06:21;;;;;;;12.77;6.78;;;;;;;;;;4984713;28;20060;-72
2022/08/29 06:08:48;;;;;;;11.57;6.32;;;;;;;;;;4983520;28;20038;-72
2022/08/29 06:11:15;;;;;;;11.02;6.50;;;;;;;;;;4982876;28;20360;-72
2022/08/29 06:13:41;;;;;;;9.23;5.95;;;;;;;;;;4984189;28;20041;-71
2022/08/29 06:16:10;;;;;;;12.77;6.30;;;;;;;;;;4986118;28;20038;-71
2022/08/29 06:18:36;;;;;;;19.90;7.57;;;;;;;;;;4989885;28;20034;-71
2022/08/29 06:21:06;;;;;;;10.80;6.15;;;;;;;;;;4971220;28;20035;-71
2022/08/29 06:23:32;;;;;;;14.30;5.50;;;;;;;;;;4988399;28;20042;-72
2022/08/29 06:25:58;;;;;;;11.43;5.45;;;;;;;;;;4987748;28;20026;-72
2022/08/29 06:28:26;;;;;;;11.70;5.45;;;;;;;;;;4986078;28;20034;-73
2022/08/29 06:30:52;;;;;;;10.95;5.63;;;;;;;;;;4985304;28;20022;-73
2022/08/29 06:33:18;;;;;;;11.30;5.20;;;;;;;;;;4984407;28;20701;-72
2022/08/29 06:35:44;;;;;;;11.90;4.97;;;;;;;;;;4959149;28;20634;-73
2022/08/29 06:38:10;;;;;;;8.65;4.70;;;;;;;;;;4982601;28;20023;-72
2022/08/29 06:40:36;;;;;;;13.23;5.40;;;;;;;;;;4986164;28;20039;-71
2022/08/29 06:43:02;;;;;;;10.82;4.72;;;;;;;;;;4963884;28;20491;-73
2022/08/29 06:45:28;;;;;;;14.32;4.82;;;;;;;;;;4988546;28;20136;-72
2022/08/29 06:47:54;;;;;;;13.90;5.22;;;;;;;;;;4982364;28;20073;-73
2022/08/29 06:50:21;;;;;;;12.15;4.82;;;;;;;;;;4993211;28;20117;-72
2022/08/29 06:52:47;;;;;;;13.27;4.53;;;;;;;;;;4991674;28;20054;-73
2022/08/29 06:55:13;;;;;;;13.23;4.47;;;;;;;;;;4988950;28;20046;-71
2022/08/29 06:57:44;;;;;;;14.55;4.60;;;;;;;;;;4993346;28;20049;-71
2022/08/29 07:00:12;;;;;;;15.00;4.55;;;;;;;;;;4989648;28;20183;-71
2022/08/29 07:02:39;;;;;;;10.10;4.55;;;;;;;;;;4981110;28;20023;-71
2022/08/29 07:05:06;;;;;;;12.68;5.50;;;;;;;;;;4976940;28;20522;-72
2022/08/29 07:07:32;;;;;;;14.27;4.80;;;;;;;;;;4973507;28;20019;-71
2022/08/29 07:09:59;;;;;;;10.90;4.82;;;;;;;;;;4973134;28;20046;-72
2022/08/29 07:12:25;;;;;;;14.73;5.35;;;;;;;;;;4981045;28;20035;-72
2022/08/29 07:14:51;;;;;;;10.45;4.93;;;;;;;;;;4991035;28;20120;-72
2022/08/29 07:17:17;;;;;;;12.52;4.50;;;;;;;;;;4971891;28;20571;-72
2022/08/29 07:19:43;;;;;;;10.68;6.05;;;;;;;;;;4992699;28;20648;-72
2022/08/29 07:22:09;;;;;;;10.70;4.70;;;;;;;;;;4992084;28;20042;-72
2022/08/29 07:24:35;;;;;;;11.52;4.82;;;;;;;;;;4992002;28;20037;-75
2022/08/29 07:27:01;;;;;;;12.73;4.50;;;;;;;;;;4991681;28;20026;-73
2022/08/29 07:29:27;;;;;;;11.80;4.65;;;;;;;;;;4988357;28;20041;-73
2022/08/29 07:31:53;;;;;;;9.85;4.35;;;;;;;;;;4990263;28;20488;-74
2022/08/29 07:34:19;;;;;;;13.45;5.43;;;;;;;;;;4973659;28;20077;-73
2022/08/29 07:36:46;;;;;;;13.68;4.43;;;;;;;;;;4986339;28;20026;-73
2022/08/29 07:39:17;;;;;;;13.60;4.90;;;;;;;;;;4992289;28;20027;-73
2022/08/29 07:41:42;;;;;;;;;;;;;;;;;;4992640;28;20037;-72
2022/08/29 07:44:09;;;;;;;10.48;4.10;;;;;;;;;;4990761;28;19910;-72
2022/08/29 07:46:36;;;;;;;15.00;4.20;;;;;;;;;;4991679;28;20132;-72
2022/08/29 07:49:02;;;;;;;13.68;4.65;;;;;;;;;;4991569;28;20046;-73
2022/08/29 07:51:28;;;;;;;8.20;4.13;;;;;;;;;;4993286;28;20026;-73
2022/08/29 07:53:55;;;;;;;11.38;5.82;;;;;;;;;;4992525;28;20054;-73
2022/08/29 07:56:24;;;;;;;10.52;4.50;;;;;;;;;;4992742;28;20038;-73
2022/08/29 07:58:51;;;;;;;10.77;4.25;;;;;;;;;;4990909;28;20523;-73
2022/08/29 08:01:16;;;;;;;13.85;4.80;;;;;;;;;;4980846;28;20039;-73
2022/08/29 08:03:42;;;;;;;12.93;4.93;;;;;;;;;;4973812;28;20207;-73
2022/08/29 08:06:09;;;;;;;18.90;5.03;;;;;;;;;;4973141;28;20584;-72
2022/08/29 08:08:35;;;;;;;14.13;4.97;;;;;;;;;;4981146;28;20030;-73
2022/08/29 08:11:06;;;;;;;14.02;4.10;;;;;;;;;;4989534;28;20034;-73
2022/08/29 08:13:32;;;;;;;16.25;4.30;;;;;;;;;;4991880;28;20041;-75
2022/08/29 08:15:58;;;;;;;10.02;4.00;;;;;;;;;;4991649;28;20041;-72
2022/08/29 08:18:25;;;;;;;8.70;3.95;;;;;;;;;;4991281;28;20035;-73
2022/08/29 08:20:51;;;;;;;15.05;4.40;;;;;;;;;;4991642;28;20075;-73
2022/08/29 08:23:18;;;;;;;18.05;4.50;;;;;;;;;;4990068;28;20065;-72
2022/08/29 08:25:44;;;;;;;11.93;3.75;;;;;;;;;;4990995;28;20065;-73
2022/08/29 08:28:12;;;;;;;12.50;4.13;;;;;;;;;;4991784;28;20443;-74
2022/08/29 08:30:38;;;;;;;9.82;4.43;;;;;;;;;;4987709;28;20065;-73
2022/08/29 08:33:04;;;;;;;11.68;3.50;;;;;;;;;;4990504;28;20045;-73
2022/08/29 08:35:33;;;;;;;9.50;3.65;;;;;;;;;;4991249;28;20077;-72
2022/08/29 08:38:00;;;;;;;8.77;3.70;;;;;;;;;;4986222;28;20117;-73
2022/08/29 08:40:27;;;;;;;12.63;3.60;;;;;;;;;;4990645;28;20129;-73
2022/08/29 08:42:59;;;;;;;11.60;3.95;;;;;;;;;;4991475;28;20027;-73
2022/08/29 08:45:30;;;;;;;8.90;4.22;;;;;;;;;;4991154;28;20034;-74
2022/08/29 08:48:16;;;;;;;7.10;3.63;;;;;;;;;;4991252;28;20077;-73
2022/08/29 08:50:46;;;;;;;8.30;3.47;;;;;;;;;;4977266;28;20027;-74
2022/08/29 08:53:26;;;;;;;8.40;3.50;;;;;;;;;;4989666;28;20050;-74
2022/08/29 08:55:54;;;;;;;10.23;3.75;;;;;;;;;;4990802;28;20026;-72
2022/08/29 08:58:27;;;;;;;10.35;3.67;;;;;;;;;;4991070;28;20042;-72
2022/08/29 09:01:13;;;;;;;11.48;3.70;;;;;;;;;;4988045;28;20604;-73
2022/08/29 09:03:39;;;;;;;10.70;4.03;;;;;;;;;;4991669;28;20038;-73
2022/08/29 09:06:17;;;;;;;14.20;4.10;;;;;;;;;;4981558;28;20026;-73
2022/08/29 09:08:58;;;;;;;10.90;3.97;;;;;;;;;;4970888;28;20026;-73
2022/08/29 09:11:47;;;;;;;10.23;4.00;;;;;;;;;;4979120;28;20031;-73
2022/08/29 09:14:13;;;;;;;8.65;3.75;;;;;;;;;;4989531;28;20046;-73
2022/08/29 09:16:41;;;;;;;9.57;3.88;;;;;;;;;;4991126;28;20049;-73
2022/08/29 09:19:10;;;;;;;10.02;3.47;;;;;;;;;;4989584;28;20096;-71
2022/08/29 09:21:45;;;;;;;8.95;3.60;;;;;;;;;;4987926;28;20499;-71
2022/08/29 09:24:13;;;;;;;8.75;3.55;;;;;;;;;;4990001;28;20049;-73
2022/08/29 09:26:40;;;;;;;10.35;3.63;;;;;;;;;;4991188;28;20037;-72
2022/08/29 09:29:08;;;;;;;8.30;3.45;;;;;;;;;;4990749;28;20502;-73
2022/08/29 09:31:34;;;;;;;15.80;3.63;;;;;;;;;;4982197;28;20542;-73
2022/08/29 09:34:02;;;;;;;9.63;3.63;;;;;;;;;;4983190;28;20056;-73
2022/08/29 09:36:39;;;;;;;9.45;3.67;;;;;;;;;;4970842;28;20100;-73
2022/08/29 09:39:14;;;;;;;8.57;3.67;;;;;;;;;;4990057;28;20034;-73
2022/08/29 09:41:40;;;;;;;11.55;3.88;;;;;;;;;;4973254;28;20034;-73
2022/08/29 09:44:11;;;;;;;9.95;3.45;;;;;;;;;;4990254;28;20022;-73
2022/08/29 09:46:37;;;;;;;11.45;3.63;;;;;;;;;;4979525;28;20109;-73
2022/08/29 09:49:04;;;;;;;6.68;3.40;;;;;;;;;;4970713;28;20030;-73
2022/08/29 09:51:34;;;;;;;16.85;3.72;;;;;;;;;;4976682;28;20306;-73
2022/08/29 09:54:12;;;;;;;11.27;3.83;;;;;;;;;;4989736;28;20038;-73
2022/08/29 09:56:47;;;;;;;11.43;4.00;;;;;;;;;;4988318;28;20046;-73
2022/08/29 09:59:24;;;;;;;11.18;4.07;;;;;;;;;;4989854;28;20105;-74
2022/08/29 10:02:07;;;;;;;8.00;3.70;;;;;;;;;;4990460;28;20022;-73
2022/08/29 10:04:38;;;;;;;10.05;4.03;;;;;;;;;;4990541;28;20068;-73
2022/08/29 10:07:13;;;;;;;21.08;3.95;;;;;;;;;;4987201;28;20518;-74
2022/08/29 10:09:40;;;;;;;12.23;3.58;;;;;;;;;;4988648;28;20046;-73
2022/08/29 10:12:11;;;;;;;16.15;4.10;;;;;;;;;;4988103;28;20046;-73
2022/08/29 10:14:43;;;;;;;11.88;3.65;;;;;;;;;;4988779;28;20038;-73
2022/08/29 10:20:08;;;;;;;7.18;3.38;;;;;;;;;;4959184;28;20200;-73
2022/08/29 10:22:40;;;;;;;10.73;3.22;;;;;;;;;;4975015;28;20311;-73
2022/08/29 10:25:23;;;;;;;9.35;3.63;;;;;;;;;;4974432;28;20082;-72
2022/08/29 10:27:59;;;;;;;14.02;3.15;;;;;;;;;;4985079;28;20081;-73
2022/08/29 10:30:39;;;;;;;7.82;3.40;;;;;;;;;;4979921;28;20141;-72
2022/08/29 10:33:06;;;;;;;10.63;3.55;;;;;;;;;;4994001;28;20037;-72
2022/08/29 10:35:42;;;;;;;11.35;3.55;;;;;;;;;;4992717;28;20031;-72
2022/08/29 10:38:12;;;;;;;9.25;3.78;;;;;;;;;;4992779;28;20026;-72
2022/08/29 10:40:44;;;;;;;12.05;3.42;;;;;;;;;;4993049;28;20108;-71
2022/08/29 10:43:11;;;;;;;6.75;3.20;;;;;;;;;;4993954;28;20019;-72
2022/08/29 10:45:40;;;;;;;14.75;3.40;;;;;;;;;;4992622;28;20037;-71
2022/08/29 10:48:06;;;;;;;10.05;3.63;;;;;;;;;;4993383;28;20546;-73
2022/08/29 10:50:54;;;;;;;13.32;4.35;;;;;;;;;;4994590;28;20113;-72
2022/08/29 10:53:20;;;;;;;10.55;3.65;;;;;;;;;;4993833;28;20044;-71
2022/08/29 10:55:53;;;;;;;8.73;3.53;;;;;;;;;;4994186;28;20105;-72
2022/08/29 10:58:43;;;;;;;10.23;3.30;;;;;;;;;;4994461;28;20082;-74
2022/08/29 11:01:14;;;;;;;11.52;3.33;;;;;;;;;;4980377;28;20047;-73
2022/08/29 11:03:46;;;;;;;13.00;3.97;;;;;;;;;;4994740;28;20026;-73
2022/08/29 11:06:16;;;;;;;16.83;3.75;;;;;;;;;;4992847;28;20050;-73
2022/08/29 11:08:53;;;;;;;10.05;3.40;;;;;;;;;;4995242;28;20018;-73
2022/08/29 11:11:20;;;;;;;6.75;2.85;;;;;;;;;;4994279;28;20502;-73
2022/08/29 11:14:12;;;;;;;8.18;3.22;;;;;;;;;;4994189;28;20038;-73
2022/08/29 11:16:41;;;;;;;10.00;3.00;;;;;;;;;;4991022;28;20041;-73
2022/08/29 11:19:20;;;;;;;7.82;3.10;;;;;;;;;;4995286;28;20026;-73
2022/08/29 11:21:49;;;;;;;9.93;3.85;;;;;;;;;;4993723;28;20101;-73
2022/08/29 11:24:16;;;;;;;15.23;3.42;;;;;;;;;;4995862;28;20057;-73
2022/08/29 11:26:43;;;;;;;8.70;3.03;;;;;;;;;;4997814;28;20026;-72
2022/08/29 11:29:16;;;;;;;9.38;3.15;;;;;;;;;;4978003;28;20483;-72
2022/08/29 11:31:48;;;;;;;8.13;2.92;;;;;;;;;;4994127;28;20224;-72
2022/08/29 11:34:33;;;;;;;8.38;3.00;;;;;;;;;;4985344;28;20428;-72
2022/08/29 11:37:17;;;;;;;7.38;2.85;;;;;;;;;;4987470;28;20041;-71
2022/08/29 11:39:44;;;;;;;8.27;2.85;;;;;;;;;;4988052;28;20058;-71
2022/08/29 11:42:11;;;;;;;7.85;3.03;;;;;;;;;;4985915;28;20703;-72
2022/08/29 11:44:44;;;;;;;12.23;2.83;;;;;;;;;;4989284;28;20535;-72
2022/08/29 11:47:28;;;;;;;10.80;3.05;;;;;;;;;;4988032;28;20173;-74
2022/08/29 11:49:54;;;;;;;10.02;3.40;;;;;;;;;;4993789;28;20027;-73
2022/08/29 11:52:23;;;;;;;6.82;2.75;;;;;;;;;;4993514;28;20535;-73
2022/08/29 11:55:09;;;;;;;9.35;2.80;;;;;;;;;;4985806;28;20045;-73
2022/08/29 11:57:35;;;;;;;7.28;2.85;;;;;;;;;;4991950;28;20057;-73
2022/08/29 12:00:02;;;;;;;11.75;3.13;;;;;;;;;;4992568;28;20061;-73
2022/08/29 12:02:30;;;;;;;49.40;6.50;;;;;;;;;;4991589;28;20030;-71
2022/08/29 12:05:03;;;;;;;16.30;3.80;;;;;;;;;;4975287;28;20031;-73
2022/08/29 12:07:46;;;;;;;9.45;3.25;;;;;;;;;;4986550;28;20022;-73
2022/08/29 12:10:22;;;;;;;104.50;11.70;;;;;;;;;;4973911;28;20035;-73
2022/08/29 12:12:51;;;;;;;32.00;5.32;;;;;;;;;;4973147;28;20081;-73
2022/08/29 12:15:26;;;;;;;11.50;3.45;;;;;;;;;;4988000;28;20026;-73
2022/08/29 12:18:08;;;;;;;15.27;3.13;;;;;;;;;;4983811;28;20530;-72
2022/08/29 12:20:39;;;;;;;19.80;4.10;;;;;;;;;;4990403;28;20053;-73
2022/08/29 12:23:06;;;;;;;12.13;3.35;;;;;;;;;;4990762;28;20072;-73
2022/08/29 12:25:44;;;;;;;14.88;3.58;;;;;;;;;;4980168;28;20087;-72
2022/08/29 12:28:36;;;;;;;18.88;3.33;;;;;;;;;;4982704;28;20046;-72
2022/08/29 12:31:14;;;;;;;7.50;2.78;;;;;;;;;;4991103;28;20039;-73
2022/08/29 12:33:58;;;;;;;4.68;2.40;;;;;;;;;;4991342;28;20080;-75
2022/08/29 12:36:47;;;;;;;18.60;2.97;;;;;;;;;;4991180;28;20066;-72
2022/08/29 12:39:19;;;;;;;11.50;2.72;;;;;;;;;;4988962;28;20480;-70
2022/08/29 12:42:12;;;;;;;8.63;2.72;;;;;;;;;;4989577;28;20518;-72
2022/08/29 12:44:39;;;;;;;22.02;4.65;;;;;;;;;;4987685;28;20100;-72
2022/08/29 12:47:10;;;;;;;9.52;3.13;;;;;;;;;;4990165;28;20057;-73
2022/08/29 12:49:42;;;;;;;10.85;3.17;;;;;;;;;;4979410;28;20042;-71
2022/08/29 12:52:19;;;;;;;8.57;2.63;;;;;;;;;;4991780;28;20069;-72
2022/08/29 12:54:45;;;;;;;8.43;2.58;;;;;;;;;;4988415;28;20022;-72
2022/08/29 12:57:18;;;;;;;7.78;2.67;;;;;;;;;;4971165;28;20039;-72
2022/08/29 12:59:48;;;;;;;5.72;2.70;;;;;;;;;;4986110;28;20084;-72
2022/08/29 13:02:24;;;;;;;8.68;2.40;;;;;;;;;;4985934;28;20019;-72
2022/08/29 13:04:50;;;;;;;7.35;2.78;;;;;;;;;;4982015;28;20018;-72
2022/08/29 13:07:17;;;;;;;9.60;2.75;;;;;;;;;;4990061;28;20034;-72
2022/08/29 13:09:44;;;;;;;9.27;2.70;;;;;;;;;;4986277;28;20149;-72
2022/08/29 13:12:10;;;;;;;10.10;2.80;;;;;;;;;;4988346;28;20088;-72
2022/08/29 13:14:54;;;;;;;5.25;2.55;;;;;;;;;;4981038;28;20499;-71
2022/08/29 13:17:22;;;;;;;9.07;2.60;;;;;;;;;;4986298;28;20033;-74
2022/08/29 13:20:07;;;;;;;6.88;2.83;;;;;;;;;;4982100;28;20113;-72
2022/08/29 13:22:33;;;;;;;6.90;2.40;;;;;;;;;;4990135;28;20030;-72
2022/08/29 13:25:06;;;;;;;5.55;2.40;;;;;;;;;;4985816;28;20036;-72
2022/08/29 13:27:32;;;;;;;13.75;3.05;;;;;;;;;;4987948;28;20084;-72
2022/08/29 13:30:00;;;;;;;9.52;2.83;;;;;;;;;;4988002;28;20038;-71
2022/08/29 13:32:26;;;;;;;8.77;2.55;;;;;;;;;;4990256;28;20323;-71
2022/08/29 13:35:10;;;;;;;6.85;2.35;;;;;;;;;;4984590;28;20054;-72
2022/08/29 13:37:37;;;;;;;6.32;2.58;;;;;;;;;;4988097;28;20038;-75
2022/08/29 13:40:22;;;;;;;7.85;2.83;;;;;;;;;;4984937;28;20046;-71
2022/08/29 13:42:48;;;;;;;13.82;3.13;;;;;;;;;;4989293;28;20085;-72
2022/08/29 13:45:19;;;;;;;7.10;2.95;;;;;;;;;;4987928;28;20030;-72
2022/08/29 13:47:50;;;;;;;6.95;2.50;;;;;;;;;;4981873;28;20051;-72
2022/08/29 13:50:16;;;;;;;10.52;2.40;;;;;;;;;;4980760;28;20408;-72
2022/08/29 13:52:42;;;;;;;14.65;2.80;;;;;;;;;;4981508;28;20033;-73
2022/08/29 13:55:11;;;;;;;11.07;2.80;;;;;;;;;;4991946;28;20594;-72
2022/08/29 13:57:40;;;;;;;7.65;2.40;;;;;;;;;;4977466;28;20088;-71
2022/08/29 14:00:07;;;;;;;6.38;2.50;;;;;;;;;;4989617;28;20510;-74
2022/08/29 14:02:35;;;;;;;9.55;2.45;;;;;;;;;;4994491;28;20120;-73
2022/08/29 14:05:01;;;;;;;19.15;3.22;;;;;;;;;;4989708;28;20497;-72
2022/08/29 14:07:28;;;;;;;8.35;2.53;;;;;;;;;;4987010;28;20081;-73
2022/08/29 14:09:55;;;;;;;8.07;2.80;;;;;;;;;;4990530;28;20022;-71
2022/08/29 14:12:21;;;;;;;9.13;3.00;;;;;;;;;;4989948;28;20555;-71
2022/08/29 14:14:47;;;;;;;9.60;2.85;;;;;;;;;;4985460;28;20030;-72
2022/08/29 14:17:14;;;;;;;8.88;3.55;;;;;;;;;;4986626;28;20034;-72
2022/08/29 14:19:40;;;;;;;11.15;2.60;;;;;;;;;;4968346;28;20034;-73
2022/08/29 14:22:07;;;;;;;10.95;2.42;;;;;;;;;;4990546;28;20034;-72
2022/08/29 14:24:33;;;;;;;7.28;2.50;;;;;;;;;;4988717;28;20138;-71
2022/08/29 14:27:00;;;;;;;7.20;2.60;;;;;;;;;;4990517;28;20046;-71
2022/08/29 14:29:26;;;;;;;14.27;2.80;;;;;;;;;;4987251;28;20567;-73
2022/08/29 14:31:53;;;;;;;5.50;2.40;;;;;;;;;;4988210;28;20030;-73
2022/08/29 14:34:20;;;;;;;7.38;2.72;;;;;;;;;;4990359;28;20030;-73
2022/08/29 14:36:46;;;;;;;6.75;2.63;;;;;;;;;;4989996;28;20034;-73
2022/08/29 14:39:13;;;;;;;12.82;2.95;;;;;;;;;;4988824;28;20133;-72
2022/08/29 14:41:41;;;;;;;8.98;2.58;;;;;;;;;;4991675;28;20355;-73
2022/08/29 14:44:07;;;;;;;5.97;2.70;;;;;;;;;;4989910;28;20126;-72
2022/08/29 14:46:33;;;;;;;8.93;2.30;;;;;;;;;;4987871;28;20129;-73
2022/08/29 14:49:00;;;;;;;7.05;2.30;;;;;;;;;;4999542;28;20065;-73